Perdue Hill, Alabama
Current Conditions -  °F | °C
As of 2:53 PM on Friday 24 Oct 2014 (Local Time) from KGZH Reporting Station
Clear Clear  
Wind Chill: 79°   Ceiling: Unl
Heat Index: 79°   Visibility: 10mi
Dew Point: 42°   Wind: 9mph
Humidity: 27%   Direction: 340°NNW
Pressure: 30.01"   Gusts: NA
Location:  31.51°N, 87.49°W
Report Text: KGZH 241953Z AUTO 34008KT 10SM CLR 26/06 A3001 RMK AO2 SLP159 T02610056
Loading
Personal Weather Stations






























Interactive Weather Map New forecast layout! Learn more

10-Day Weather Forecast

Advertisements
Track Severe Weather on mobile